Time;durP1;ratioP1;P1;durP2;ratioP2;P2;SDS_P1;SDS_P2;PMS_P1;PMS_P2;Temp;Humidity;BMP_temperature;BMP_pressure;BME280_temperature;BME280_humidity;BME280_pressure;Samples;Min_cycle;Max_cycle;Signal;HPM_P1;HPM_P2
2022/05/18 00:01:39;;;;;;;2.00;1.75;;;12.50;99.90;;;;;;7408186;19;20380;-86
2022/05/18 00:04:04;;;;;;;2.88;1.92;;;12.50;99.90;;;;;;7409119;19;20315;-87
2022/05/18 00:06:30;;;;;;;3.47;1.67;;;12.40;99.90;;;;;;7406960;19;20880;-86
2022/05/18 00:08:56;;;;;;;1.95;1.77;;;12.40;99.90;;;;;;7408598;19;20372;-82
2022/05/18 00:11:21;;;;;;;1.67;1.58;;;12.40;99.90;;;;;;7407117;19;20308;-86
2022/05/18 00:13:49;;;;;;;2.07;1.77;;;12.30;99.90;;;;;;7405005;19;20368;-84
2022/05/18 00:16:15;;;;;;;2.20;1.80;;;12.30;99.90;;;;;;7398595;19;20543;-83
2022/05/18 00:18:41;;;;;;;1.87;1.53;;;12.20;99.90;;;;;;7407600;19;20414;-84
2022/05/18 00:21:07;;;;;;;1.75;1.50;;;12.20;99.90;;;;;;7406679;19;20372;-83
2022/05/18 00:23:33;;;;;;;1.67;1.58;;;12.10;99.90;;;;;;7407381;19;20358;-84
2022/05/18 00:25:58;;;;;;;2.03;1.50;;;12.20;99.90;;;;;;7407063;19;20321;-86
2022/05/18 00:28:24;;;;;;;3.60;1.77;;;12.10;99.90;;;;;;7409091;19;20308;-85
2022/05/18 00:30:51;;;;;;;2.00;1.60;;;12.00;99.90;;;;;;7404307;19;20324;-85
2022/05/18 00:33:17;;;;;;;1.70;1.60;;;12.00;99.90;;;;;;7414467;19;20333;-86
2022/05/18 00:35:42;;;;;;;2.53;1.48;;;11.90;99.90;;;;;;7409337;19;20320;-89
2022/05/18 00:38:09;;;;;;;3.00;1.80;;;11.90;99.90;;;;;;7406555;19;20308;-83
2022/05/18 00:40:39;;;;;;;1.40;1.30;;;11.80;99.90;;;;;;7409826;19;20369;-83
2022/05/18 00:43:04;;;;;;;1.95;1.23;;;11.80;99.90;;;;;;7409342;19;20333;-88
2022/05/18 00:45:30;;;;;;;2.75;1.40;;;11.80;99.90;;;;;;7408067;19;20316;-86
2022/05/18 00:47:56;;;;;;;1.73;1.53;;;11.70;99.90;;;;;;7405758;19;20312;-82
2022/05/18 00:50:27;;;;;;;3.35;1.35;;;11.70;99.90;;;;;;7411550;19;20324;-86
2022/05/18 00:52:58;;;;;;;1.40;1.30;;;11.70;99.90;;;;;;7301801;19;2004362;-85
2022/05/18 00:55:24;;;;;;;1.10;1.10;;;11.60;99.90;;;;;;7404903;19;20357;-84
2022/05/18 00:58:15;;;;;;;1.85;1.35;;;11.60;99.90;;;;;;7403673;19;20413;-87
2022/05/18 01:00:40;;;;;;;1.50;1.40;;;11.60;99.90;;;;;;7403259;19;20337;-87
2022/05/18 01:03:28;;;;;;;1.73;1.45;;;11.50;99.90;;;;;;7411606;19;20349;-80
2022/05/18 01:06:06;;;;;;;2.90;1.48;;;11.50;99.90;;;;;;7408921;19;20671;-84
2022/05/18 01:08:54;;;;;;;1.30;1.17;;;11.40;99.90;;;;;;7408206;19;20412;-82
2022/05/18 01:11:49;;;;;;;1.45;1.35;;;11.40;99.90;;;;;;7307885;19;2004546;-81
2022/05/18 01:14:27;;;;;;;1.30;1.20;;;11.40;99.90;;;;;;7310294;19;2004112;-84
2022/05/18 01:16:52;;;;;;;8.52;1.40;;;11.30;99.90;;;;;;7410173;19;20657;-84
2022/05/18 01:19:45;;;;;;;1.43;1.33;;;11.30;99.90;;;;;;7411515;19;20308;-81
2022/05/18 01:22:50;;;;;;;1.33;1.20;;;11.20;99.90;;;;;;7417748;19;20350;-85
2022/05/18 01:25:53;;;;;;;1.50;1.25;;;11.20;99.90;;;;;;7416848;19;20324;-84
2022/05/18 01:28:30;;;;;;;1.60;1.20;;;11.20;99.90;;;;;;7312464;19;2004152;-82
2022/05/18 01:30:56;;;;;;;1.53;1.13;;;11.20;99.90;;;;;;7414633;19;20312;-84
2022/05/18 01:33:22;;;;;;;1.40;1.02;;;11.10;99.90;;;;;;7412690;19;20340;-82
2022/05/18 01:35:48;;;;;;;1.45;1.30;;;11.00;99.90;;;;;;7369807;19;20336;-84
2022/05/18 01:38:14;;;;;;;3.70;1.35;;;11.00;99.90;;;;;;7414174;19;20336;-82
2022/05/18 01:44:10;;;;;;;1.35;1.25;;;10.90;99.90;;;;;;7360557;19;20323;-83
2022/05/18 01:46:41;;;;;;;1.45;1.20;;;10.90;99.90;;;;;;7413517;19;20313;-83
2022/05/18 01:49:27;;;;;;;1.35;1.20;;;10.90;99.90;;;;;;7418444;19;20319;-81
2022/05/18 01:51:58;;;;;;;1.17;1.08;;;10.80;99.90;;;;;;7414493;19;20334;-86
2022/05/18 01:54:44;;;;;;;1.27;1.17;;;10.80;99.90;;;;;;7416638;19;20293;-79
2022/05/18 01:57:32;;;;;;;1.40;1.30;;;10.80;99.90;;;;;;7311804;19;2004211;-82
2022/05/18 01:59:58;;;;;;;1.20;1.10;;;10.70;99.90;;;;;;7405975;19;20383;-84
2022/05/18 02:02:45;;;;;;;1.80;1.23;;;10.60;99.90;;;;;;7266103;19;20365;-81
2022/05/18 02:08:52;;;;;;;1.70;1.20;;;10.50;99.90;;;;;;7413971;19;20865;-80
2022/05/18 02:12:12;;;;;;;1.27;1.00;;;10.50;99.90;;;;;;7338279;19;20377;-82
2022/05/18 02:15:06;;;;;;;1.08;1.02;;;10.40;99.90;;;;;;7415194;19;20348;-80
2022/05/18 02:20:50;;;;;;;1.50;1.20;;;10.40;99.90;;;;;;7348860;19;20323;-85
2022/05/18 02:23:42;;;;;;;1.60;1.25;;;10.30;99.90;;;;;;7305765;19;2004694;-83
2022/05/18 02:26:37;;;;;;;1.70;1.40;;;10.20;99.90;;;;;;7387795;19;20313;-79
2022/05/18 02:29:45;;;;;;;2.70;1.40;;;10.20;99.90;;;;;;7374918;19;20327;-81
2022/05/18 02:33:25;;;;;;;3.13;1.20;;;10.20;99.90;;;;;;7182851;19;2004333;-81
2022/05/18 02:36:58;;;;;;;1.45;1.35;;;10.10;99.90;;;;;;7400194;19;20408;-81
2022/05/18 02:39:59;;;;;;;1.60;1.42;;;10.00;99.90;;;;;;7372522;19;20334;-82
2022/05/18 02:43:44;;;;;;;1.92;1.30;;;10.00;99.90;;;;;;7284098;19;2004143;-80
2022/05/18 02:47:23;;;;;;;1.63;1.37;;;10.00;99.90;;;;;;7272862;19;2004229;-79
2022/05/18 02:50:40;;;;;;;1.45;1.20;;;9.90;99.90;;;;;;7373892;19;20998;-81
2022/05/18 02:53:07;;;;;;;1.30;1.20;;;9.90;99.90;;;;;;7377568;19;20353;-79
2022/05/18 02:58:27;;;;;;;1.20;1.10;;;9.80;99.90;;;;;;7321975;19;20304;-80
2022/05/18 03:01:10;;;;;;;2.25;1.30;;;9.80;99.90;;;;;;7400734;19;20344;-76
2022/05/18 03:03:46;;;;;;;1.52;1.13;;;9.80;99.90;;;;;;7387615;19;20333;-79
2022/05/18 03:10:15;;;;;;;2.55;1.20;;;9.80;99.90;;;;;;7399252;19;20465;-81
2022/05/18 03:17:53;;;;;;;1.27;1.20;;;9.70;99.90;;;;;;7404051;19;20370;-81
2022/05/18 03:30:43;;;;;;;1.40;1.30;;;9.50;99.90;;;;;;7369444;19;20364;-79
2022/05/18 03:33:09;;;;;;;1.70;1.27;;;9.50;99.90;;;;;;7371046;19;20317;-78
2022/05/18 03:35:35;;;;;;;1.77;1.20;;;9.50;99.90;;;;;;7367829;19;20371;-79
2022/05/18 03:38:04;;;;;;;1.57;1.30;;;9.50;99.90;;;;;;7368729;19;20395;-78
2022/05/18 03:40:29;;;;;;;1.80;1.25;;;9.50;99.90;;;;;;7368147;19;21163;-79
2022/05/18 03:42:55;;;;;;;1.60;1.13;;;9.50;99.90;;;;;;7373650;19;20345;-79
2022/05/18 03:45:21;;;;;;;1.33;1.23;;;9.50;99.90;;;;;;7363648;19;20352;-79
2022/05/18 03:47:46;;;;;;;1.20;1.10;;;9.50;99.90;;;;;;7367800;19;20345;-79
2022/05/18 03:50:13;;;;;;;1.30;1.20;;;9.50;99.90;;;;;;7368084;19;20325;-78
2022/05/18 03:52:38;;;;;;;1.33;1.23;;;9.60;99.90;;;;;;7368926;19;20853;-78
2022/05/18 03:55:04;;;;;;;1.60;1.30;;;9.60;99.90;;;;;;7369044;19;20423;-79
2022/05/18 03:57:30;;;;;;;3.85;1.50;;;9.60;99.90;;;;;;7369644;19;20336;-79
2022/05/18 03:59:55;;;;;;;1.40;1.03;;;9.60;99.90;;;;;;7369834;19;20321;-79
2022/05/18 04:02:21;;;;;;;1.40;1.23;;;9.60;99.90;;;;;;7368794;19;20315;-79
2022/05/18 04:04:47;;;;;;;1.95;1.25;;;9.60;99.90;;;;;;7370759;19;20402;-80
2022/05/18 04:07:12;;;;;;;1.20;1.10;;;9.60;99.90;;;;;;7371781;19;20361;-79
2022/05/18 04:09:38;;;;;;;2.25;1.15;;;9.60;99.90;;;;;;7374958;19;20698;-79
2022/05/18 04:12:04;;;;;;;1.97;1.40;;;9.60;99.90;;;;;;7373980;19;20433;-79
2022/05/18 04:14:30;;;;;;;1.15;1.15;;;9.60;99.90;;;;;;7372621;19;20388;-79
2022/05/18 04:16:55;;;;;;;3.30;1.40;;;9.60;99.90;;;;;;7367786;19;20380;-79
2022/05/18 04:19:21;;;;;;;1.30;1.20;;;9.60;99.90;;;;;;7374394;19;20400;-80
2022/05/18 04:21:47;;;;;;;1.40;1.30;;;9.70;99.90;;;;;;7372780;19;20879;-79
2022/05/18 04:24:12;;;;;;;1.70;1.33;;;9.70;99.90;;;;;;7376323;19;20665;-78
2022/05/18 04:26:39;;;;;;;3.80;1.15;;;9.70;99.90;;;;;;7370113;19;20342;-79
2022/05/18 04:29:05;;;;;;;4.40;1.67;;;9.80;99.90;;;;;;7372828;19;20313;-80
2022/05/18 04:31:30;;;;;;;1.38;1.23;;;9.80;99.90;;;;;;7371568;19;20333;-79
2022/05/18 04:33:56;;;;;;;1.20;1.10;;;9.80;99.90;;;;;;7376432;19;20319;-79
2022/05/18 04:36:22;;;;;;;1.42;1.10;;;9.90;99.90;;;;;;7365969;19;20368;-79
2022/05/18 04:38:47;;;;;;;1.40;1.20;;;9.90;99.90;;;;;;7374151;19;20327;-79
2022/05/18 04:41:13;;;;;;;1.35;1.20;;;10.00;99.90;;;;;;7381552;19;20316;-80
2022/05/18 04:43:38;;;;;;;1.33;1.20;;;10.00;99.90;;;;;;7380224;19;20335;-79
2022/05/18 04:46:06;;;;;;;1.88;1.50;;;10.10;99.90;;;;;;7378319;19;20300;-79
2022/05/18 04:48:32;;;;;;;3.22;1.40;;;10.10;99.90;;;;;;7376610;19;20308;-81
2022/05/18 04:50:57;;;;;;;1.45;1.10;;;10.20;99.90;;;;;;7376444;19;20333;-79
2022/05/18 04:53:23;;;;;;;2.13;1.30;;;10.30;99.90;;;;;;7371547;19;20312;-81
2022/05/18 04:55:49;;;;;;;1.40;1.30;;;10.40;99.90;;;;;;7365969;19;20311;-78
2022/05/18 04:58:15;;;;;;;1.90;1.40;;;10.50;99.90;;;;;;7364768;19;20349;-77
2022/05/18 05:00:41;;;;;;;1.38;1.27;;;10.50;99.90;;;;;;7362154;19;20301;-79
2022/05/18 05:03:07;;;;;;;2.03;1.60;;;10.60;99.90;;;;;;7365446;19;20341;-77
2022/05/18 05:05:32;;;;;;;1.38;1.25;;;10.70;99.90;;;;;;7360911;19;20332;-78
2022/05/18 05:07:58;;;;;;;2.30;1.40;;;10.70;99.90;;;;;;7365133;19;21736;-78
2022/05/18 05:10:24;;;;;;;3.00;1.77;;;10.80;99.90;;;;;;7366712;19;20332;-79
2022/05/18 05:12:50;;;;;;;1.35;1.25;;;10.80;99.90;;;;;;7366835;19;20342;-77
2022/05/18 05:15:15;;;;;;;2.60;1.60;;;10.90;99.90;;;;;;7357368;19;20746;-80
2022/05/18 05:17:41;;;;;;;1.45;1.35;;;10.90;99.90;;;;;;7366151;19;20407;-79
2022/05/18 05:20:07;;;;;;;1.47;1.37;;;11.00;99.90;;;;;;7376246;19;20305;-79
2022/05/18 05:22:33;;;;;;;2.27;1.40;;;11.10;99.90;;;;;;7373732;19;20328;-79
2022/05/18 05:24:58;;;;;;;2.45;1.65;;;11.10;99.90;;;;;;7369206;19;20388;-76
2022/05/18 05:27:24;;;;;;;1.27;1.17;;;11.30;99.90;;;;;;7371653;19;20315;-76
2022/05/18 05:29:49;;;;;;;4.40;1.60;;;11.40;99.90;;;;;;7371315;19;20674;-77
2022/05/18 05:32:15;;;;;;;1.43;1.30;;;11.40;99.90;;;;;;7375658;19;20437;-83
2022/05/18 05:34:41;;;;;;;3.70;1.70;;;11.40;99.90;;;;;;7370385;19;20321;-77
2022/05/18 05:37:07;;;;;;;2.30;1.50;;;11.50;99.90;;;;;;7359971;19;20414;-78
2022/05/18 05:39:32;;;;;;;1.50;1.40;;;11.50;99.90;;;;;;7366857;19;20324;-79
2022/05/18 05:41:59;;;;;;;2.20;1.63;;;11.60;99.90;;;;;;7352930;19;20841;-77
2022/05/18 05:44:25;;;;;;;1.40;1.30;;;11.80;99.90;;;;;;7357460;19;20301;-79
2022/05/18 05:46:50;;;;;;;2.40;1.50;;;11.90;99.90;;;;;;7363825;19;20409;-79
2022/05/18 05:49:16;;;;;;;1.60;1.50;;;12.00;99.90;;;;;;7373822;19;20476;-79
2022/05/18 05:51:42;;;;;;;2.05;1.73;;;12.10;99.90;;;;;;7377241;19;20336;-79
2022/05/18 05:54:08;;;;;;;2.40;1.75;;;12.20;99.90;;;;;;7386100;19;20344;-81
2022/05/18 05:56:34;;;;;;;2.45;1.42;;;12.20;99.90;;;;;;7351513;19;20329;-78
2022/05/18 05:58:59;;;;;;;3.50;1.50;;;12.20;99.90;;;;;;7376991;19;20855;-78
2022/05/18 06:01:25;;;;;;;1.47;1.30;;;12.30;99.90;;;;;;7365265;19;20372;-80
2022/05/18 06:03:51;;;;;;;1.60;1.50;;;12.50;99.90;;;;;;7379690;19;20341;-83
2022/05/18 06:06:19;;;;;;;2.50;1.60;;;12.50;99.90;;;;;;7384520;19;20305;-86
2022/05/18 06:08:44;;;;;;;3.60;1.60;;;12.50;99.90;;;;;;7379142;19;20328;-77
2022/05/18 06:11:10;;;;;;;1.92;1.65;;;12.60;99.90;;;;;;7379422;19;20321;-79
2022/05/18 06:13:36;;;;;;;1.77;1.40;;;12.70;99.90;;;;;;7380483;19;20327;-85
2022/05/18 06:16:02;;;;;;;2.22;1.67;;;12.70;99.90;;;;;;7380784;19;20313;-80
2022/05/18 06:18:29;;;;;;;1.90;1.45;;;13.00;99.90;;;;;;7386424;19;20375;-81
2022/05/18 06:20:55;;;;;;;2.08;1.50;;;12.90;99.90;;;;;;7386048;19;21176;-79
2022/05/18 06:23:21;;;;;;;1.60;1.50;;;13.00;99.90;;;;;;7390501;19;20384;-86
2022/05/18 06:25:46;;;;;;;1.57;1.47;;;13.10;99.90;;;;;;7390333;19;20297;-80
2022/05/18 06:28:12;;;;;;;2.53;1.67;;;13.20;99.90;;;;;;7381726;19;20859;-79
2022/05/18 06:30:38;;;;;;;2.97;1.70;;;13.30;99.90;;;;;;7381075;19;20345;-80
2022/05/18 06:33:04;;;;;;;1.60;1.50;;;13.40;99.90;;;;;;7383778;19;20313;-82
2022/05/18 06:35:29;;;;;;;3.10;1.67;;;13.50;99.90;;;;;;7382573;19;20866;-87
2022/05/18 06:37:55;;;;;;;2.42;1.73;;;13.70;99.90;;;;;;7381568;19;20321;-82
2022/05/18 06:41:21;;;;;;;2.00;1.60;;;13.90;99.90;;;;;;7378490;19;20328;-79
2022/05/18 06:43:07;;;;;;;3.33;1.60;;;14.00;99.90;;;;;;7269229;19;2004718;-79
2022/05/18 06:45:32;;;;;;;1.55;1.45;;;14.20;99.90;;;;;;7369918;19;20340;-79
2022/05/18 06:47:58;;;;;;;2.33;1.83;;;14.30;99.90;;;;;;7368919;19;20396;-79
2022/05/18 06:50:24;;;;;;;2.70;2.10;;;14.70;99.90;;;;;;7371401;19;20380;-79
2022/05/18 06:52:50;;;;;;;1.80;1.70;;;14.80;99.90;;;;;;7367346;19;20333;-80
2022/05/18 06:55:15;;;;;;;1.85;1.70;;;15.00;99.90;;;;;;7374477;19;20345;-80
2022/05/18 06:57:41;;;;;;;1.83;1.70;;;15.20;99.90;;;;;;7369928;19;20312;-79
2022/05/18 07:00:08;;;;;;;2.00;1.50;;;15.40;99.90;;;;;;7362669;19;20316;-80
2022/05/18 07:02:33;;;;;;;1.92;1.70;;;15.60;99.90;;;;;;7367625;19;20337;-79
2022/05/18 07:04:59;;;;;;;4.43;2.00;;;15.80;99.90;;;;;;7368777;19;21757;-83
2022/05/18 07:07:25;;;;;;;2.47;1.50;;;16.00;99.90;;;;;;7370315;19;20332;-79
2022/05/18 07:09:51;;;;;;;2.38;1.75;;;16.10;99.90;;;;;;7373877;19;20320;-80
2022/05/18 07:12:16;;;;;;;3.23;1.80;;;16.60;99.90;;;;;;7372781;19;20348;-80
2022/05/18 07:14:42;;;;;;;4.03;1.70;;;16.80;99.90;;;;;;7374213;19;20344;-79
2022/05/18 07:17:08;;;;;;;2.07;1.60;;;16.90;99.90;;;;;;7372442;19;20301;-78
2022/05/18 07:19:34;;;;;;;1.90;1.50;;;17.00;99.90;;;;;;7378332;19;20341;-79
2022/05/18 07:21:59;;;;;;;2.80;1.60;;;17.20;99.90;;;;;;7377552;19;20697;-77
2022/05/18 07:24:25;;;;;;;1.42;1.33;;;17.20;98.70;;;;;;7392214;19;20352;-80
2022/05/18 07:26:51;;;;;;;2.97;1.65;;;17.40;99.70;;;;;;7376660;19;20317;-79
2022/05/18 07:29:17;;;;;;;1.40;1.23;;;17.50;97.10;;;;;;7375842;19;20312;-79
2022/05/18 07:34:27;;;;;;;1.70;1.50;;;18.00;97.60;;;;;;7365753;19;20344;-78
2022/05/18 07:36:53;;;;;;;1.70;1.30;;;18.10;98.10;;;;;;7371304;19;20896;-79
2022/05/18 07:39:19;;;;;;;2.27;1.60;;;18.20;95.60;;;;;;7374768;19;20308;-77
2022/05/18 07:41:45;;;;;;;1.40;1.30;;;18.40;94.70;;;;;;7371743;19;20305;-77
2022/05/18 07:44:11;;;;;;;1.70;1.20;;;18.50;94.40;;;;;;7374376;19;20348;-81
2022/05/18 07:46:37;;;;;;;1.35;1.25;;;18.60;97.60;;;;;;7376767;19;20305;-78
2022/05/18 07:49:03;;;;;;;1.75;1.55;;;18.90;94.00;;;;;;7377168;19;20308;-77
2022/05/18 07:51:29;;;;;;;2.70;1.63;;;19.00;94.00;;;;;;7369335;19;20337;-79
2022/05/18 07:53:55;;;;;;;2.33;1.55;;;19.10;93.90;;;;;;7372211;19;20319;-81
2022/05/18 07:56:21;;;;;;;1.40;1.30;;;19.30;92.40;;;;;;7370232;19;20337;-79
2022/05/18 07:58:47;;;;;;;2.60;1.52;;;19.40;91.90;;;;;;7369219;19;20324;-77
2022/05/18 08:01:12;;;;;;;4.10;1.50;;;19.50;92.20;;;;;;7365477;19;20332;-80
2022/05/18 08:03:38;;;;;;;1.98;1.48;;;19.20;90.00;;;;;;7368623;19;20345;-82
2022/05/18 08:06:04;;;;;;;2.60;1.70;;;19.50;91.70;;;;;;7370039;19;20316;-79
2022/05/18 08:08:29;;;;;;;2.73;1.63;;;19.60;90.70;;;;;;7373372;19;20344;-77
2022/05/18 08:16:25;;;;;;;1.83;1.30;;;20.00;90.70;;;;;;7374315;19;21289;-80
2022/05/18 08:18:50;;;;;;;1.63;1.15;;;20.10;88.30;;;;;;7371716;19;21171;-77
2022/05/18 08:21:17;;;;;;;1.42;1.20;;;19.90;86.20;;;;;;7372265;19;20332;-78
2022/05/18 08:23:43;;;;;;;2.20;1.30;;;20.10;89.80;;;;;;7377603;19;20373;-83
2022/05/18 08:26:09;;;;;;;2.85;1.63;;;20.50;90.60;;;;;;7371024;19;20752;-80
2022/05/18 08:28:34;;;;;;;1.63;1.50;;;20.60;85.90;;;;;;7371809;19;20319;-76
2022/05/18 08:31:01;;;;;;;3.38;1.60;;;20.60;86.80;;;;;;7363334;19;21171;-78
2022/05/18 08:33:28;;;;;;;1.40;1.30;;;20.80;89.00;;;;;;7361491;19;20402;-77
2022/05/18 08:35:54;;;;;;;1.50;1.40;;;20.70;83.90;;;;;;7363601;19;20317;-80
2022/05/18 08:38:20;;;;;;;3.37;1.60;;;20.30;84.80;;;;;;7369393;19;20341;-77
2022/05/18 08:40:53;;;;;;;3.42;1.73;;;20.50;85.60;;;;;;7371966;19;20339;-79
2022/05/18 08:43:26;;;;;;;2.00;1.60;;;20.60;86.10;;;;;;7270382;19;2004421;-77
2022/05/18 08:46:12;;;;;;;3.08;1.60;;;20.80;85.90;;;;;;7264305;19;2004615;-77
2022/05/18 08:48:49;;;;;;;1.70;1.60;;;21.10;87.10;;;;;;7268537;19;2004872;-79
2022/05/18 08:51:53;;;;;;;1.70;1.60;;;21.00;85.30;;;;;;7370341;19;20340;-83
2022/05/18 08:54:33;;;;;;;3.03;1.65;;;21.60;88.00;;;;;;7167963;19;2005361;-84
2022/05/18 08:57:00;;;;;;;1.95;1.77;;;21.90;85.90;;;;;;7269442;19;2004300;-82
2022/05/18 08:59:30;;;;;;;1.80;1.70;;;21.80;84.10;;;;;;7370732;19;20312;-80
2022/05/18 09:01:58;;;;;;;2.85;1.70;;;21.70;83.10;;;;;;7360252;19;21130;-85
2022/05/18 09:04:44;;;;;;;1.90;1.70;;;21.90;84.60;;;;;;7367940;19;20317;-81
2022/05/18 09:07:12;;;;;;;2.00;1.80;;;22.20;86.40;;;;;;7366714;19;20351;-80
2022/05/18 09:12:37;;;;;;;3.63;1.85;;;22.20;84.90;;;;;;7370255;19;21429;-82
2022/05/18 09:15:04;;;;;;;2.53;1.75;;;22.00;86.50;;;;;;7370453;19;20324;-80
2022/05/18 09:17:40;;;;;;;1.75;1.55;;;21.90;82.60;;;;;;7370560;19;20352;-80
2022/05/18 09:20:41;;;;;;;2.60;2.03;;;21.80;83.50;;;;;;7264866;19;2004542;-83
2022/05/18 09:23:45;;;;;;;1.85;1.65;;;21.90;84.10;;;;;;7167980;19;2005020;-79
2022/05/18 09:26:42;;;;;;;2.13;1.90;;;22.20;85.50;;;;;;7271133;19;2004411;-81
2022/05/18 09:29:19;;;;;;;2.17;1.97;;;22.50;84.90;;;;;;7274217;19;2004242;-83
2022/05/18 09:32:13;;;;;;;3.10;2.20;;;22.80;84.50;;;;;;7372978;19;20320;-81
2022/05/18 09:35:22;;;;;;;2.47;2.10;;;23.00;83.50;;;;;;7375475;19;20369;-80
2022/05/18 09:38:08;;;;;;;2.58;2.15;;;23.10;82.30;;;;;;7273863;19;2004429;-81
2022/05/18 09:40:43;;;;;;;2.40;2.15;;;23.70;85.90;;;;;;7271796;19;2004398;-81
2022/05/18 09:43:12;;;;;;;2.90;2.10;;;23.70;81.90;;;;;;7273885;19;2004356;-79
2022/05/18 09:45:40;;;;;;;3.65;2.00;;;24.10;86.80;;;;;;7370301;19;20356;-84
2022/05/18 09:48:11;;;;;;;2.37;2.17;;;24.30;84.50;;;;;;7374542;19;20309;-78
2022/05/18 09:50:41;;;;;;;4.53;2.20;;;24.10;81.00;;;;;;7368559;19;20340;-79
2022/05/18 09:53:07;;;;;;;4.85;2.25;;;24.60;85.00;;;;;;7376564;19;20329;-83
2022/05/18 09:55:32;;;;;;;3.53;2.20;;;24.80;81.70;;;;;;7370493;19;20341;-80
2022/05/18 09:58:03;;;;;;;2.53;2.00;;;25.10;79.90;;;;;;7376737;19;20415;-77
2022/05/18 10:00:32;;;;;;;2.60;1.90;;;25.20;81.40;;;;;;7375532;19;20645;-84
2022/05/18 10:08:57;;;;;;;3.42;2.20;;;25.10;77.40;;;;;;7272227;19;2004358;-80
2022/05/18 10:11:41;;;;;;;3.03;2.13;;;25.40;79.10;;;;;;7374180;19;20376;-81
2022/05/18 10:14:12;;;;;;;2.20;2.00;;;24.90;75.40;;;;;;7271439;19;2004533;-82
2022/05/18 10:16:39;;;;;;;2.53;1.90;;;25.10;76.00;;;;;;7374467;19;20401;-77
2022/05/18 10:19:04;;;;;;;2.90;2.23;;;24.70;77.30;;;;;;7375423;19;20321;-89
2022/05/18 10:21:34;;;;;;;1.88;1.55;;;24.80;78.20;;;;;;7376329;19;20802;-86
2022/05/18 10:24:05;;;;;;;4.10;1.90;;;25.40;75.60;;;;;;7375522;19;20335;-79
2022/05/18 10:26:30;;;;;;;1.42;1.33;;;25.10;72.50;;;;;;7376663;19;20410;-81
2022/05/18 10:29:12;;;;;;;2.13;1.83;;;25.60;72.40;;;;;;7377475;19;20679;-83
2022/05/18 10:31:43;;;;;;;1.97;1.60;;;25.30;67.50;;;;;;7271781;19;2004856;-79
2022/05/18 10:34:11;;;;;;;2.83;1.77;;;25.60;70.40;;;;;;7375711;19;20416;-81
2022/05/18 10:36:48;;;;;;;4.27;1.90;;;26.10;69.80;;;;;;7377216;19;20372;-80
2022/05/18 10:39:50;;;;;;;1.50;1.40;;;26.60;68.20;;;;;;7375859;19;20348;-83
2022/05/18 10:42:26;;;;;;;1.40;1.30;;;26.80;67.20;;;;;;7272657;19;2004386;-83
2022/05/18 10:44:52;;;;;;;1.77;1.57;;;27.20;69.40;;;;;;7380666;19;20324;-78
2022/05/18 10:47:26;;;;;;;2.30;1.40;;;27.00;61.30;;;;;;7375607;19;20339;-79
2022/05/18 10:49:52;;;;;;;1.73;1.40;;;26.80;60.10;;;;;;7376104;19;20317;-83
2022/05/18 10:52:29;;;;;;;1.88;1.40;;;26.80;62.90;;;;;;7377659;19;20341;-77
2022/05/18 10:54:56;;;;;;;1.70;1.38;;;26.50;58.10;;;;;;7374900;19;21188;-87
2022/05/18 10:57:34;;;;;;;1.30;1.20;;;26.70;58.80;;;;;;7375511;19;20331;-80
2022/05/18 11:00:06;;;;;;;1.50;1.40;;;27.00;58.90;;;;;;7380519;19;20334;-78
2022/05/18 11:03:02;;;;;;;1.40;1.30;;;27.40;59.30;;;;;;7383187;19;20903;-80
2022/05/18 11:05:46;;;;;;;1.23;1.20;;;28.30;60.00;;;;;;7283643;19;2004153;-78
2022/05/18 11:08:14;;;;;;;1.77;1.40;;;29.00;57.80;;;;;;7388090;19;20333;-78
2022/05/18 11:10:52;;;;;;;2.00;1.45;;;28.80;54.80;;;;;;7367890;19;20349;-78
2022/05/18 11:13:28;;;;;;;1.63;1.53;;;28.40;55.60;;;;;;7367236;19;20337;-77
2022/05/18 11:16:04;;;;;;;1.50;1.40;;;27.50;52.40;;;;;;7367559;19;20995;-78
2022/05/18 11:18:40;;;;;;;1.67;1.52;;;28.20;55.80;;;;;;7368764;19;20317;-79
2022/05/18 11:21:45;;;;;;;3.20;1.60;;;28.60;56.80;;;;;;7361145;19;20348;-77
2022/05/18 11:24:27;;;;;;;2.03;1.27;;;28.30;52.10;;;;;;7261342;19;2006351;-77
2022/05/18 11:27:01;;;;;;;2.08;1.38;;;28.70;52.60;;;;;;7364631;19;21543;-77
2022/05/18 11:29:48;;;;;;;1.77;1.40;;;28.60;53.20;;;;;;7367181;19;20348;-77
2022/05/18 11:32:27;;;;;;;1.30;1.20;;;28.60;53.10;;;;;;7359733;19;20361;-80
2022/05/18 11:35:20;;;;;;;1.45;1.35;;;29.00;52.80;;;;;;7366178;19;20341;-77
2022/05/18 11:38:06;;;;;;;1.23;1.13;;;28.90;49.10;;;;;;7266829;19;2004414;-76
2022/05/18 11:40:40;;;;;;;1.90;1.33;;;28.80;50.70;;;;;;7368954;19;20352;-79
2022/05/18 11:43:29;;;;;;;1.20;1.10;;;29.10;48.40;;;;;;7373553;19;20348;-77
2022/05/18 11:46:05;;;;;;;1.38;1.17;;;29.30;51.40;;;;;;7368966;19;21343;-77
2022/05/18 11:48:42;;;;;;;1.38;1.20;;;30.10;52.20;;;;;;7371325;19;20325;-78
2022/05/18 11:51:33;;;;;;;2.20;1.50;;;30.00;50.60;;;;;;7364742;19;20340;-78
2022/05/18 11:54:08;;;;;;;1.48;1.38;;;29.20;47.80;;;;;;7262157;19;2004505;-78
2022/05/18 11:56:52;;;;;;;3.93;1.57;;;29.70;51.30;;;;;;7263634;19;2004325;-78
2022/05/18 11:59:57;;;;;;;1.67;1.58;;;29.40;48.80;;;;;;7263831;19;2004351;-77
2022/05/18 12:02:48;;;;;;;1.70;1.40;;;29.50;47.40;;;;;;7263552;19;2005650;-80
2022/05/18 12:05:40;;;;;;;1.40;1.30;;;29.70;46.30;;;;;;7267085;19;2004141;-77
2022/05/18 12:08:14;;;;;;;3.58;1.10;;;30.20;48.10;;;;;;7269164;19;2004451;-77
2022/05/18 12:11:04;;;;;;;1.50;1.40;;;30.70;46.70;;;;;;7264652;19;2004340;-77
2022/05/18 12:13:41;;;;;;;2.30;1.42;;;31.10;50.50;;;;;;7267854;19;2004358;-77
2022/05/18 12:16:22;;;;;;;2.17;1.83;;;31.40;50.10;;;;;;7365152;19;21146;-77
2022/05/18 12:19:14;;;;;;;1.65;1.27;;;31.40;44.40;;;;;;7368254;19;20439;-78
2022/05/18 12:21:44;;;;;;;1.37;1.20;;;31.00;46.70;;;;;;7369870;19;20401;-78
2022/05/18 12:24:10;;;;;;;1.67;1.57;;;31.20;48.70;;;;;;7365788;19;20884;-78
2022/05/18 12:26:37;;;;;;;1.35;1.25;;;31.70;45.90;;;;;;7369218;19;20349;-78
2022/05/18 12:29:04;;;;;;;2.22;1.50;;;31.40;45.60;;;;;;7371507;19;20383;-79
2022/05/18 12:31:30;;;;;;;1.30;1.20;;;31.70;46.40;;;;;;7373546;19;20847;-79
2022/05/18 12:34:05;;;;;;;2.15;1.48;;;31.60;44.90;;;;;;7371733;19;20315;-79
2022/05/18 12:36:40;;;;;;;4.10;1.50;;;32.10;45.80;;;;;;7371694;19;20433;-78
2022/05/18 12:39:12;;;;;;;1.67;1.30;;;32.60;46.60;;;;;;7372987;19;20361;-78
2022/05/18 12:41:43;;;;;;;1.40;1.23;;;32.90;45.20;;;;;;7374928;19;20308;-78
2022/05/18 12:44:13;;;;;;;3.08;1.38;;;32.50;44.10;;;;;;7376789;19;20339;-78
2022/05/18 12:46:53;;;;;;;3.40;1.60;;;32.20;45.60;;;;;;7376063;19;20344;-79
2022/05/18 12:49:38;;;;;;;2.53;1.58;;;32.50;43.00;;;;;;7378690;19;20340;-77
2022/05/18 12:52:13;;;;;;;1.73;1.40;;;32.90;44.20;;;;;;7376310;19;20323;-77
2022/05/18 12:54:47;;;;;;;1.65;1.50;;;33.10;43.50;;;;;;7370720;19;20411;-77
2022/05/18 12:57:21;;;;;;;1.20;1.10;;;33.20;44.10;;;;;;7375483;19;20352;-77
2022/05/18 13:00:02;;;;;;;3.40;1.45;;;33.50;40.90;;;;;;7384369;19;20332;-78
2022/05/18 13:02:42;;;;;;;4.80;1.70;;;33.10;43.40;;;;;;7384071;19;20830;-78
2022/05/18 13:05:26;;;;;;;1.40;1.30;;;31.60;40.40;;;;;;7385254;19;20372;-77
2022/05/18 13:08:21;;;;;;;2.50;1.40;;;31.40;42.70;;;;;;7380211;19;20328;-77
2022/05/18 13:11:23;;;;;;;2.60;1.60;;;31.70;43.30;;;;;;7273860;19;2005312;-76
2022/05/18 13:14:01;;;;;;;1.70;1.60;;;31.80;45.40;;;;;;7273983;19;2004338;-77
2022/05/18 13:16:36;;;;;;;1.70;1.55;;;32.40;47.20;;;;;;7371502;19;20334;-77
2022/05/18 13:19:11;;;;;;;1.60;1.50;;;32.90;42.80;;;;;;7383070;19;20328;-77
2022/05/18 13:21:38;;;;;;;3.75;1.75;;;33.70;44.80;;;;;;7279124;19;2004415;-77
2022/05/18 13:24:11;;;;;;;5.50;1.60;;;34.30;41.90;;;;;;7382892;19;20354;-78
2022/05/18 13:26:43;;;;;;;2.65;1.80;;;34.60;41.50;;;;;;7373991;19;20408;-77
2022/05/18 13:29:27;;;;;;;1.58;1.48;;;35.10;41.50;;;;;;7383156;19;20312;-77
2022/05/18 13:32:01;;;;;;;1.60;1.50;;;33.50;39.60;;;;;;7379699;19;20341;-78
2022/05/18 13:34:46;;;;;;;3.92;1.70;;;32.80;40.50;;;;;;7377675;19;20345;-77
2022/05/18 13:37:11;;;;;;;1.83;1.63;;;33.60;42.40;;;;;;7378751;19;20347;-78
2022/05/18 13:39:39;;;;;;;2.00;1.60;;;33.10;38.90;;;;;;7382227;19;20352;-77
2022/05/18 13:42:06;;;;;;;1.52;1.42;;;32.90;40.50;;;;;;7381936;19;20320;-78
2022/05/18 13:44:32;;;;;;;1.33;1.23;;;32.90;40.20;;;;;;7379049;19;20320;-78
2022/05/18 13:46:57;;;;;;;2.13;1.50;;;32.00;38.10;;;;;;7388817;19;20418;-77
2022/05/18 13:49:26;;;;;;;1.63;1.53;;;31.70;40.00;;;;;;7388153;19;20309;-77
2022/05/18 13:51:55;;;;;;;1.73;1.63;;;32.10;39.40;;;;;;7384730;19;20673;-77
2022/05/18 13:54:21;;;;;;;2.60;1.40;;;32.00;41.20;;;;;;7384553;19;20423;-78
2022/05/18 13:56:58;;;;;;;1.50;1.40;;;32.40;40.00;;;;;;7381445;19;20308;-77
2022/05/18 13:59:30;;;;;;;1.60;1.50;;;33.40;40.20;;;;;;7280816;19;2010587;-79
2022/05/18 14:01:58;;;;;;;1.25;1.23;;;33.60;40.40;;;;;;7377510;19;20288;-79
2022/05/18 14:04:32;;;;;;;1.92;1.55;;;33.30;39.10;;;;;;7384557;19;20332;-79
2022/05/18 14:06:58;;;;;;;1.70;1.60;;;32.70;37.80;;;;;;7384962;19;20300;-78